Time;durP1;ratioP1;P1;durP2;ratioP2;P2;SDS_P1;SDS_P2;PMS_P1;PMS_P2;Temp;Humidity;BMP_temperature;BMP_pressure;BME280_temperature;BME280_humidity;BME280_pressure;Samples;Min_cycle;Max_cycle;Signal;HPM_P1;HPM_P2
2023/11/19 00:01:25;;;;;;;;;28.80;26.60;;;;;8.53;100.00;99276.56;6147868;28;96405;-66
2023/11/19 00:04:30;;;;;;;;;29.00;25.60;;;;;8.53;100.00;99279.25;6163740;28;96502;-66
2023/11/19 00:07:33;;;;;;;;;28.25;25.75;;;;;8.59;100.00;99275.78;6165180;28;96652;-65
2023/11/19 00:10:37;;;;;;;;;24.40;21.60;;;;;8.53;100.00;99275.72;6168428;28;96923;-66
2023/11/19 00:13:40;;;;;;;;;29.40;26.40;;;;;8.46;100.00;99273.00;6160138;28;96375;-66
2023/11/19 00:16:44;;;;;;;;;26.67;24.67;;;;;8.44;100.00;99277.75;6129926;28;98572;-63
2023/11/19 00:19:51;;;;;;;;;29.00;26.00;;;;;8.43;100.00;99270.72;6132000;28;96682;-63
2023/11/19 00:22:54;;;;;;;;;26.00;24.67;;;;;8.40;100.00;99264.91;6145718;28;97530;-64
2023/11/19 00:25:57;;;;;;;;;23.50;23.00;;;;;8.32;100.00;99273.13;6146735;28;98448;-63
2023/11/19 00:29:00;;;;;;;;;25.50;24.00;;;;;8.39;100.00;99269.47;6164704;28;96883;-63
2023/11/19 00:32:05;;;;;;;;;30.00;28.00;;;;;8.38;100.00;99267.78;6147500;28;96476;-63
2023/11/19 00:35:11;;;;;;;;;28.20;26.20;;;;;8.41;100.00;99250.44;6146723;28;99615;-63
2023/11/19 00:38:14;;;;;;;;;25.00;23.75;;;;;8.40;100.00;99251.50;6146128;28;97044;-63
2023/11/19 00:41:17;;;;;;;;;22.40;21.80;;;;;8.40;100.00;99243.44;6171088;28;96949;-63
2023/11/19 00:44:21;;;;;;;;;27.80;25.00;;;;;8.31;100.00;99233.88;6133748;28;98327;-62
2023/11/19 00:47:25;;;;;;;;;25.80;22.60;;;;;8.25;100.00;99228.25;6164311;28;97215;-63
2023/11/19 00:50:31;;;;;;;;;27.50;24.00;;;;;8.21;100.00;99228.81;6141305;28;97352;-63
2023/11/19 00:53:37;;;;;;;;;27.80;25.80;;;;;8.21;100.00;99223.44;6164847;28;96364;-63
2023/11/19 00:56:40;;;;;;;;;24.80;23.00;;;;;8.21;100.00;99218.06;6164102;28;96266;-63
2023/11/19 00:59:43;;;;;;;;;25.20;23.00;;;;;8.24;100.00;99209.63;6163754;28;96718;-63
2023/11/19 01:02:46;;;;;;;;;23.80;20.00;;;;;8.26;100.00;99199.50;6162634;28;96425;-63
2023/11/19 01:05:52;;;;;;;;;22.60;20.40;;;;;8.32;100.00;99203.28;6146900;28;98467;-63
2023/11/19 01:08:57;;;;;;;;;26.00;25.00;;;;;8.34;100.00;99204.75;6145440;28;98278;-63
2023/11/19 01:12:00;;;;;;;;;27.80;25.40;;;;;8.28;100.00;99206.34;6180253;28;96360;-63
2023/11/19 01:15:04;;;;;;;;;24.00;22.40;;;;;8.32;100.00;99198.72;6183297;28;96388;-63
2023/11/19 01:18:08;;;;;;;;;29.20;27.40;;;;;8.39;100.00;99196.94;6161905;28;96492;-63
2023/11/19 01:21:14;;;;;;;;;23.40;21.00;;;;;8.30;100.00;99200.81;6163911;28;96395;-63
2023/11/19 01:24:17;;;;;;;;;25.00;22.00;;;;;8.25;100.00;99196.00;6162423;28;96422;-63
2023/11/19 01:27:21;;;;;;;;;29.75;24.75;;;;;8.19;100.00;99194.13;6145902;28;96926;-66
2023/11/19 01:30:24;;;;;;;;;24.60;21.40;;;;;8.24;100.00;99212.31;6166841;28;96917;-65
2023/11/19 01:33:27;;;;;;;;;24.40;23.40;;;;;8.13;100.00;99202.13;6168023;28;96621;-65
2023/11/19 01:36:32;;;;;;;;;24.50;22.50;;;;;8.14;100.00;99201.09;6161614;28;96267;-66
2023/11/19 01:39:35;;;;;;;;;25.00;23.00;;;;;8.12;100.00;99190.53;6162789;28;96555;-65
2023/11/19 01:42:38;;;;;;;;;24.80;22.40;;;;;8.19;100.00;99194.13;6156728;28;98821;-66
2023/11/19 01:45:41;;;;;;;;;21.00;18.00;;;;;8.27;100.00;99187.72;6183678;28;96884;-66
2023/11/19 01:48:46;;;;;;;;;29.00;26.00;;;;;8.34;100.00;99193.19;6163096;28;97506;-65
2023/11/19 01:51:51;;;;;;;;;27.20;23.20;;;;;8.33;100.00;99191.50;6145501;28;98798;-65
2023/11/19 01:54:55;;;;;;;;;26.00;24.75;;;;;8.37;100.00;99187.38;6163210;28;96277;-65
2023/11/19 01:58:02;;;;;;;;;25.00;22.20;;;;;8.31;100.00;99177.47;6161713;28;96842;-65
2023/11/19 02:01:07;;;;;;;;;27.00;24.00;;;;;8.25;100.00;99168.31;6174546;28;96564;-63
2023/11/19 02:04:11;;;;;;;;;25.50;23.00;;;;;8.12;100.00;99157.50;6203980;22;97839;-64
2023/11/19 02:07:17;;;;;;;;;23.00;22.00;;;;;8.19;100.00;99153.81;6191303;28;96318;-65
2023/11/19 02:10:20;;;;;;;;;24.20;21.80;;;;;8.27;100.00;99155.50;6191663;28;96930;-65
2023/11/19 02:13:24;;;;;;;;;28.40;27.40;;;;;8.30;100.00;99151.63;6191005;28;96559;-65
2023/11/19 02:16:28;;;;;;;;;28.00;26.00;;;;;8.27;100.00;99150.94;6162343;28;96670;-65
2023/11/19 02:19:31;;;;;;;;;35.20;31.00;;;;;8.28;100.00;99151.78;6145473;28;96638;-65
2023/11/19 02:22:36;;;;;;;;;23.60;22.80;;;;;8.28;100.00;99146.41;6160238;28;96815;-66
2023/11/19 02:25:41;;;;;;;;;22.00;21.00;;;;;8.35;100.00;99128.50;6165897;28;96230;-65
2023/11/19 02:28:46;;;;;;;;;29.25;27.25;;;;;8.40;100.00;99115.31;6171332;28;97108;-65
2023/11/19 02:31:49;;;;;;;;;29.40;25.00;;;;;8.38;100.00;99106.59;6170380;28;96276;-63
2023/11/19 02:34:52;;;;;;;;;25.80;23.80;;;;;8.27;100.00;99082.97;6177688;28;96688;-64
2023/11/19 02:37:56;;;;;;;;;24.50;23.75;;;;;8.21;100.00;99089.97;6166504;28;96487;-64
2023/11/19 02:41:02;;;;;;;;;32.00;28.40;;;;;8.09;100.00;99083.53;6165278;28;96542;-64
2023/11/19 02:44:07;;;;;;;;;28.75;24.50;;;;;8.06;100.00;99067.03;6164794;28;99136;-64
2023/11/19 02:47:10;;;;;;;;;27.80;26.00;;;;;8.05;100.00;99054.63;6165424;28;96236;-64
2023/11/19 02:50:14;;;;;;;;;25.25;23.25;;;;;8.08;100.00;99051.50;6163653;28;96407;-64
2023/11/19 02:53:17;;;;;;;;;28.50;26.50;;;;;8.06;100.00;99042.84;6184415;28;96309;-65
2023/11/19 02:56:25;;;;;;;;;24.40;23.00;;;;;8.17;100.00;99061.03;6165627;28;96181;-64
2023/11/19 02:59:38;;;;;;;;;29.20;26.00;;;;;8.25;100.00;99050.97;6164263;28;96770;-65
2023/11/19 03:02:46;;;;;;;;;26.40;22.00;;;;;8.26;100.00;99039.16;6162007;28;96546;-63
2023/11/19 03:05:49;;;;;;;;;28.00;26.00;;;;;8.26;100.00;99035.66;6163781;28;96407;-64
2023/11/19 03:08:53;;;;;;;;;29.25;27.50;;;;;8.20;100.00;99036.47;6148112;28;96856;-65
2023/11/19 03:11:56;;;;;;;;;29.50;25.50;;;;;8.24;100.00;99017.06;6185505;28;96778;-65
2023/11/19 03:15:00;;;;;;;;;31.50;30.00;;;;;8.31;100.00;99011.72;6165683;28;96311;-65
2023/11/19 03:18:04;;;;;;;;;30.00;30.00;;;;;8.35;100.00;99004.13;6166655;28;96389;-68
2023/11/19 03:21:07;;;;;;;;;30.00;28.00;;;;;8.39;100.00;98979.31;6155020;28;96777;-69
2023/11/19 03:24:11;;;;;;;;;32.50;28.50;;;;;8.39;100.00;98982.00;6138046;28;96442;-69
2023/11/19 03:27:14;;;;;;;;;32.50;28.50;;;;;8.35;100.00;98991.50;6175632;28;96283;-68
2023/11/19 03:30:21;;;;;;;;;33.00;30.00;;;;;8.35;100.00;98977.25;6164127;28;96257;-69
2023/11/19 03:33:35;;;;;;;;;31.00;28.20;;;;;8.32;100.00;98975.78;6164908;28;96809;-68
2023/11/19 03:36:39;;;;;;;;;36.20;31.80;;;;;8.28;100.00;98967.28;6179630;28;96781;-68
2023/11/19 03:39:43;;;;;;;;;32.00;29.40;;;;;8.27;100.00;98976.38;6164724;28;96302;-68
2023/11/19 03:42:46;;;;;;;;;28.00;27.00;;;;;8.27;100.00;98964.78;6180714;28;96454;-68
2023/11/19 03:45:50;;;;;;;;;27.50;26.50;;;;;8.20;100.00;98963.97;6184623;28;96639;-68
2023/11/19 03:48:54;;;;;;;;;32.40;28.20;;;;;8.17;100.00;98978.63;6188675;28;96506;-68
2023/11/19 03:51:57;;;;;;;;;32.00;28.60;;;;;8.04;100.00;98973.22;6184978;28;96729;-69
2023/11/19 03:55:00;;;;;;;;;33.20;27.00;;;;;7.96;100.00;98965.38;6164207;28;96969;-68
2023/11/19 03:58:03;;;;;;;;;31.00;27.00;;;;;7.78;100.00;98939.09;6179891;28;96431;-69
2023/11/19 04:01:12;;;;;;;;;30.25;27.50;;;;;7.78;100.00;98933.72;6164276;28;97129;-68
2023/11/19 04:04:16;;;;;;;;;35.00;30.60;;;;;7.84;100.00;98932.09;6158517;28;96417;-69
2023/11/19 04:07:19;;;;;;;;;28.00;24.20;;;;;7.81;100.00;98921.78;6191999;28;96395;-68
2023/11/19 04:10:22;;;;;;;;;34.40;30.60;;;;;7.74;100.00;98913.69;6180151;28;96366;-68
2023/11/19 04:13:26;;;;;;;;;31.60;29.00;;;;;7.79;100.00;98921.13;6161570;28;96301;-69
2023/11/19 04:16:30;;;;;;;;;33.50;30.00;;;;;7.76;100.00;98927.75;6163451;28;96378;-69
2023/11/19 04:19:33;;;;;;;;;32.00;29.00;;;;;7.73;100.00;98917.41;6160836;28;98402;-69
2023/11/19 04:22:37;;;;;;;;;33.60;30.00;;;;;7.83;100.00;98911.66;6161806;28;96746;-69
2023/11/19 04:25:40;;;;;;;;;35.50;32.00;;;;;7.84;100.00;98902.56;6181405;28;96567;-69
2023/11/19 04:28:43;;;;;;;;;39.40;32.00;;;;;7.84;100.00;98883.78;6153857;28;98384;-70
2023/11/19 04:31:48;;;;;;;;;31.25;27.50;;;;;7.90;100.00;98887.50;6186325;28;97183;-70
2023/11/19 04:34:51;;;;;;;;;40.20;32.00;;;;;7.96;100.00;98890.22;6172919;28;96848;-70
2023/11/19 04:37:57;;;;;;;;;35.25;31.00;;;;;7.96;100.00;98879.47;6189598;28;96505;-70
2023/11/19 04:41:00;;;;;;;;;33.00;30.00;;;;;8.01;100.00;98882.38;6182428;28;96555;-71
2023/11/19 04:44:03;;;;;;;;;30.60;27.60;;;;;7.96;100.00;98866.06;6180844;28;97789;-71
2023/11/19 04:47:08;;;;;;;;;34.75;30.50;;;;;8.05;100.00;98867.50;6154449;28;97633;-70
2023/11/19 04:50:11;;;;;;;;;35.67;31.67;;;;;8.06;100.00;98855.69;6164919;28;96812;-71
2023/11/19 04:53:15;;;;;;;;;39.00;33.20;;;;;8.04;100.00;98848.91;6162470;28;98680;-70
2023/11/19 04:56:19;;;;;;;;;34.00;32.00;;;;;8.04;100.00;98846.22;6163191;28;97684;-70
2023/11/19 04:59:22;;;;;;;;;37.60;32.00;;;;;8.09;100.00;98838.38;6186662;28;96566;-70
2023/11/19 05:02:27;;;;;;;;;39.00;33.00;;;;;8.05;100.00;98839.81;6165836;28;97438;-70
2023/11/19 05:05:30;;;;;;;;;36.00;32.40;;;;;8.01;100.00;98852.84;6165820;28;97468;-70
2023/11/19 05:08:33;;;;;;;;;36.50;32.50;;;;;8.01;100.00;98844.78;6161761;28;96488;-70
2023/11/19 05:11:36;;;;;;;;;37.00;32.00;;;;;8.01;100.00;98841.28;6146993;28;96656;-70
2023/11/19 05:14:53;;;;;;;;;31.20;29.20;;;;;8.06;100.00;98841.47;6139921;28;96680;-70
2023/11/19 05:17:58;;;;;;;;;39.00;33.40;;;;;8.03;100.00;98839.19;6154782;28;98167;-71
2023/11/19 05:21:01;;;;;;;;;37.00;33.00;;;;;8.02;100.00;98840.22;6157837;28;96605;-71
2023/11/19 05:24:05;;;;;;;;;33.75;30.00;;;;;7.97;100.00;98850.75;6157380;28;96832;-71
2023/11/19 05:27:08;;;;;;;;;37.50;31.25;;;;;7.96;100.00;98847.25;6162934;28;96925;-70
2023/11/19 05:30:12;;;;;;;;;35.60;31.40;;;;;8.02;100.00;98841.03;6151032;28;96472;-70
2023/11/19 05:33:16;;;;;;;;;34.40;32.00;;;;;8.01;100.00;98834.03;6161449;28;97049;-71
2023/11/19 05:36:19;;;;;;;;;36.25;29.25;;;;;8.03;100.00;98831.13;6142367;28;97470;-68
2023/11/19 05:39:22;;;;;;;;;34.20;30.20;;;;;7.89;100.00;98822.25;6167114;28;96354;-68
2023/11/19 05:42:27;;;;;;;;;38.20;32.80;;;;;7.95;100.00;98842.91;6169072;28;97155;-68
2023/11/19 05:45:30;;;;;;;;;41.00;35.00;;;;;7.93;100.00;98838.78;6161171;28;97088;-69
2023/11/19 05:48:35;;;;;;;;;39.50;31.25;;;;;7.87;100.00;98832.38;6169333;28;96589;-68
2023/11/19 05:51:38;;;;;;;;;43.40;34.60;;;;;7.86;100.00;98822.69;6145955;28;98602;-67
2023/11/19 05:54:42;;;;;;;;;34.40;31.00;;;;;7.86;100.00;98821.84;6152729;28;96697;-68
2023/11/19 05:57:45;;;;;;;;;32.00;30.00;;;;;7.83;100.00;98797.06;6161959;28;98375;-68
2023/11/19 06:00:50;;;;;;;;;33.00;28.75;;;;;7.74;100.00;98792.09;6164581;28;97701;-68
2023/11/19 06:03:55;;;;;;;;;36.00;31.00;;;;;7.75;100.00;98793.78;6180867;28;96321;-68
2023/11/19 06:06:58;;;;;;;;;33.60;29.40;;;;;7.74;100.00;98792.09;6164085;28;96616;-69
2023/11/19 06:10:02;;;;;;;;;35.60;31.00;;;;;7.73;100.00;98788.59;6149309;28;98448;-68
2023/11/19 06:13:06;;;;;;;;;36.00;30.75;;;;;7.75;100.00;98777.66;6163982;28;96364;-68
2023/11/19 06:16:09;;;;;;;;;33.80;29.20;;;;;7.78;100.00;98790.66;6158346;28;96451;-69
2023/11/19 06:19:14;;;;;;;;;31.00;28.00;;;;;7.75;100.00;98793.78;6152533;28;96796;-69
2023/11/19 06:22:17;;;;;;;;;33.60;29.60;;;;;7.78;100.00;98788.81;6164715;28;96330;-67
2023/11/19 06:25:20;;;;;;;;;38.00;32.50;;;;;7.84;100.00;98777.25;6179650;28;98619;-67
2023/11/19 06:28:23;;;;;;;;;36.00;31.00;;;;;7.91;100.00;98779.13;6167392;28;96633;-68
2023/11/19 06:31:27;;;;;;;;;37.00;32.00;;;;;8.01;100.00;98791.09;6155488;28;96284;-68
2023/11/19 06:34:33;;;;;;;;;38.40;31.00;;;;;8.02;100.00;98791.88;6175049;28;97004;-69
2023/11/19 06:37:36;;;;;;;;;41.20;34.00;;;;;7.81;100.00;98771.47;6187423;28;96521;-68
2023/11/19 06:40:41;;;;;;;;;39.00;33.00;;;;;7.95;100.00;98788.41;6184678;28;96381;-69
2023/11/19 06:43:44;;;;;;;;;37.00;32.00;;;;;8.02;100.00;98797.25;6140681;28;96938;-68
2023/11/19 06:46:49;;;;;;;;;37.00;31.80;;;;;8.04;100.00;98796.03;6159352;28;96595;-65
2023/11/19 06:49:54;;;;;;;;;34.20;29.60;;;;;8.08;100.00;98793.75;6162343;28;96931;-65
2023/11/19 06:52:57;;;;;;;;;32.75;29.75;;;;;8.16;100.00;98786.28;6163261;28;96257;-64
2023/11/19 06:56:00;;;;;;;;;41.00;33.00;;;;;8.20;100.00;98781.34;6146783;28;96370;-64
2023/11/19 06:59:03;;;;;;;;;36.50;32.25;;;;;8.28;100.00;98783.81;6160201;28;97557;-65
2023/11/19 07:02:07;;;;;;;;;39.00;32.80;;;;;8.33;100.00;98769.78;6161694;28;96881;-63
2023/11/19 07:05:13;;;;;;;;;40.00;32.00;;;;;8.38;100.00;98753.88;6165888;28;96251;-64
2023/11/19 07:08:16;;;;;;;;;37.00;32.00;;;;;8.39;100.00;98745.59;6161379;28;96284;-64
2023/11/19 07:11:19;;;;;;;;;37.60;32.00;;;;;8.44;100.00;98743.13;6147676;28;98565;-66
2023/11/19 07:14:23;;;;;;;;;35.60;31.80;;;;;8.56;100.00;98732.50;6166942;28;97144;-64
2023/11/19 07:17:27;;;;;;;;;32.80;30.20;;;;;8.60;100.00;98723.81;6164403;28;96325;-64
2023/11/19 07:20:32;;;;;;;;;31.00;30.00;;;;;8.74;100.00;98721.09;6173810;28;96550;-65
2023/11/19 07:23:36;;;;;;;;;30.33;27.67;;;;;8.77;100.00;98716.09;6158070;28;96431;-65
2023/11/19 07:26:43;;;;;;;;;30.60;27.00;;;;;8.84;100.00;98705.31;6185676;28;96313;-64
2023/11/19 07:29:46;;;;;;;;;31.40;26.00;;;;;8.82;100.00;98705.53;6175904;28;97110;-66
2023/11/19 07:32:49;;;;;;;;;26.60;25.60;;;;;8.88;100.00;98710.06;6153107;28;97150;-63
2023/11/19 07:35:54;;;;;;;;;30.50;29.50;;;;;8.93;100.00;98696.78;6151699;28;97128;-64
2023/11/19 07:38:57;;;;;;;;;33.75;29.00;;;;;9.07;100.00;98703.75;6148855;28;98739;-64
2023/11/19 07:42:00;;;;;;;;;28.33;26.00;;;;;9.23;100.00;98723.91;6150244;28;96448;-64
2023/11/19 07:45:05;;;;;;;;;27.00;24.00;;;;;9.37;100.00;98727.34;6169877;28;96806;-64
2023/11/19 07:48:08;;;;;;;;;26.20;25.20;;;;;9.46;100.00;98742.16;6154557;28;96409;-63
2023/11/19 07:51:14;;;;;;;;;26.60;24.60;;;;;9.47;100.00;98730.38;6156941;28;99271;-67
2023/11/19 07:54:21;;;;;;;;;28.33;24.00;;;;;9.35;100.00;98724.84;6157308;28;96509;-64
2023/11/19 07:57:27;;;;;;;;;30.00;26.00;;;;;9.21;100.00;98714.41;6150447;28;96812;-68
2023/11/19 08:00:30;;;;;;;;;30.40;27.80;;;;;9.25;100.00;98710.22;6165538;28;96675;-70
2023/11/19 08:03:34;;;;;;;;;28.25;24.00;;;;;9.34;100.00;98698.97;6148944;28;97256;-70
2023/11/19 08:06:39;;;;;;;;;23.25;21.00;;;;;9.50;100.00;98700.31;6131651;28;98443;-71
2023/11/19 08:09:43;;;;;;;;;25.00;23.00;;;;;9.76;100.00;98688.50;6169905;28;98630;-70
2023/11/19 08:12:46;;;;;;;;;22.00;21.00;;;;;9.94;100.00;98685.84;6154880;28;97803;-71
2023/11/19 08:15:49;;;;;;;;;18.60;18.00;;;;;9.77;100.00;98688.31;6156087;28;98441;-71
2023/11/19 08:18:52;;;;;;;;;24.00;23.40;;;;;9.70;100.00;98674.06;6147970;28;97509;-71
2023/11/19 08:21:57;;;;;;;;;20.00;19.00;;;;;9.19;100.00;98665.41;6148672;28;97289;-69
2023/11/19 08:25:00;;;;;;;;;18.00;17.00;;;;;9.20;100.00;98664.31;6150163;28;97819;-70
2023/11/19 08:28:04;;;;;;;;;18.50;17.50;;;;;9.23;100.00;98650.47;6155297;28;96682;-71
2023/11/19 08:31:07;;;;;;;;;19.00;16.75;;;;;9.18;100.00;98658.38;6154306;28;96648;-71
2023/11/19 08:34:10;;;;;;;;;19.00;17.00;;;;;9.16;100.00;98634.38;6149239;28;99134;-70
2023/11/19 08:37:15;;;;;;;;;16.00;15.80;;;;;9.29;100.00;98631.56;6153166;28;97537;-71
2023/11/19 08:40:18;;;;;;;;;19.60;18.40;;;;;9.31;100.00;98645.63;6148432;28;97420;-70
2023/11/19 08:43:23;;;;;;;;;14.60;13.60;;;;;9.33;100.00;98648.94;6150790;28;98475;-70
2023/11/19 08:46:26;;;;;;;;;19.50;17.50;;;;;9.43;100.00;98649.25;6150349;28;96824;-71
2023/11/19 08:49:29;;;;;;;;;19.60;18.00;;;;;9.46;100.00;98656.88;6157433;28;97443;-69
2023/11/19 08:52:34;;;;;;;;;16.40;16.40;;;;;9.46;100.00;98642.59;6146318;28;97435;-70
2023/11/19 08:55:37;;;;;;;;;17.40;15.40;;;;;9.60;100.00;98644.13;6154497;28;96850;-70
2023/11/19 08:58:41;;;;;;;;;22.00;19.40;;;;;9.58;100.00;98625.50;6147649;28;97492;-69
2023/11/19 09:01:44;;;;;;;;;17.00;15.40;;;;;9.41;100.00;98632.50;6145849;28;97553;-70
2023/11/19 09:04:47;;;;;;;;;19.40;18.60;;;;;9.27;100.00;98636.34;6149928;28;98406;-70
2023/11/19 09:07:54;;;;;;;;;22.50;21.50;;;;;9.20;100.00;98632.88;6151782;28;96671;-70
2023/11/19 09:10:57;;;;;;;;;20.60;18.60;;;;;9.32;100.00;98633.84;6145608;28;97197;-71
2023/11/19 09:14:01;;;;;;;;;20.50;18.75;;;;;9.24;100.00;98609.06;6154951;28;96771;-69
2023/11/19 09:17:04;;;;;;;;;20.80;19.80;;;;;9.42;100.00;98630.66;6132413;28;98894;-70
2023/11/19 09:20:08;;;;;;;;;20.25;18.25;;;;;9.56;100.00;98618.72;6157356;28;97531;-71
2023/11/19 09:23:13;;;;;;;;;21.00;19.00;;;;;9.62;100.00;98614.31;6145192;28;97207;-70
2023/11/19 09:26:16;;;;;;;;;21.00;19.00;;;;;9.29;100.00;98591.22;6155236;28;97014;-70
2023/11/19 09:29:20;;;;;;;;;25.25;21.25;;;;;9.50;100.00;98588.13;6154744;28;96579;-69
2023/11/19 09:32:24;;;;;;;;;22.25;18.00;;;;;9.42;100.00;98571.44;6159916;28;99420;-69
2023/11/19 09:35:27;;;;;;;;;22.40;21.40;;;;;9.40;100.00;98565.47;6156651;28;100776;-71
2023/11/19 09:38:32;;;;;;;;;23.60;22.00;;;;;9.39;100.00;98553.88;6160132;28;97261;-69
2023/11/19 09:41:36;;;;;;;;;21.20;19.00;;;;;9.34;100.00;98547.50;6156648;28;97630;-70
2023/11/19 09:44:39;;;;;;;;;16.60;16.60;;;;;9.56;100.00;98552.25;6156530;28;97825;-69
2023/11/19 09:47:44;;;;;;;;;22.60;21.00;;;;;9.24;100.00;98547.19;6150844;28;97434;-70
2023/11/19 09:50:49;;;;;;;;;21.25;19.50;;;;;9.35;100.00;98544.59;6165575;28;97289;-69
2023/11/19 09:53:53;;;;;;;;;20.00;18.00;;;;;9.18;100.00;98540.03;6162459;28;97235;-70
2023/11/19 09:57:02;;;;;;;;;22.80;19.80;;;;;9.44;100.00;98526.28;6170593;28;97586;-69
2023/11/19 10:00:07;;;;;;;;;23.00;21.40;;;;;9.94;100.00;98538.56;6149644;28;96873;-69
2023/11/19 10:03:13;;;;;;;;;20.00;18.75;;;;;10.42;100.00;98535.06;6153513;28;97876;-69
2023/11/19 10:06:18;;;;;;;;;21.80;20.00;;;;;10.89;100.00;98544.09;6171577;28;99730;-70
2023/11/19 10:09:23;;;;;;;;;20.40;16.80;;;;;11.24;100.00;98534.16;6154102;28;98299;-70
2023/11/19 10:12:27;;;;;;;;;18.00;17.00;;;;;11.32;100.00;98524.06;6160167;28;96850;-69
2023/11/19 10:15:36;;;;;;;;;20.25;17.00;;;;;11.40;100.00;98510.19;6151166;28;97770;-70
2023/11/19 10:18:45;;;;;;;;;22.00;19.40;;;;;11.46;100.00;98503.88;6153991;28;96922;-68
2023/11/19 10:21:49;;;;;;;;;17.40;17.40;;;;;11.64;100.00;98487.50;6163479;28;96616;-68
2023/11/19 10:24:53;;;;;;;;;17.00;16.00;;;;;11.64;100.00;98488.34;6160236;28;96562;-70
2023/11/19 10:27:58;;;;;;;;;19.00;18.00;;;;;11.53;100.00;98477.59;6162212;28;98385;-69
2023/11/19 10:31:02;;;;;;;;;20.75;18.00;;;;;11.62;100.00;98468.06;6164000;28;96393;-69
2023/11/19 10:34:05;;;;;;;;;19.00;18.33;;;;;11.74;100.00;98466.16;6155513;28;96569;-69
2023/11/19 10:37:08;;;;;;;;;17.40;14.00;;;;;11.89;100.00;98471.88;6161896;28;96324;-70
2023/11/19 10:40:13;;;;;;;;;13.20;12.20;;;;;11.86;100.00;98458.84;6163755;28;96720;-69
2023/11/19 10:43:17;;;;;;;;;16.80;15.20;;;;;11.83;100.00;98450.38;6152266;28;98517;-68
2023/11/19 10:46:22;;;;;;;;;13.00;12.60;;;;;11.76;100.00;98447.03;6157226;28;96598;-69
2023/11/19 10:49:26;;;;;;;;;17.40;16.40;;;;;11.58;100.00;98438.00;6157768;28;98654;-69
2023/11/19 10:52:30;;;;;;;;;18.00;15.00;;;;;11.43;100.00;98426.91;6178026;28;96428;-68
2023/11/19 10:55:36;;;;;;;;;18.20;16.00;;;;;11.47;100.00;98413.75;6144574;28;97715;-68
2023/11/19 10:58:45;;;;;;;;;14.80;12.80;;;;;11.04;100.00;98401.50;6148572;28;98595;-71
2023/11/19 11:01:51;;;;;;;;;11.00;11.00;;;;;10.66;100.00;98391.19;6162505;28;97355;-69
2023/11/19 11:04:56;;;;;;;;;13.80;13.00;;;;;10.73;100.00;98399.16;6135895;28;96931;-69
2023/11/19 11:08:01;;;;;;;;;14.00;12.40;;;;;10.53;100.00;98398.69;6130402;28;96687;-66
2023/11/19 11:11:08;;;;;;;;;12.00;11.00;;;;;10.49;100.00;98373.25;6124326;28;97023;-69
2023/11/19 11:14:14;;;;;;;;;13.80;12.80;;;;;10.61;100.00;98368.69;6141656;28;96626;-70
2023/11/19 11:17:18;;;;;;;;;12.00;11.60;;;;;10.73;100.00;98364.94;6147550;28;96298;-69
2023/11/19 11:20:22;;;;;;;;;15.80;13.80;;;;;10.89;100.00;98354.50;6146575;28;96831;-69
2023/11/19 11:23:55;;;;;;;;;16.00;13.00;;;;;10.91;100.00;98352.38;6125660;28;96417;-70
2023/11/19 11:27:18;;;;;;;;;15.00;14.00;;;;;10.57;100.00;98348.66;6125080;28;98088;-66
2023/11/19 11:30:31;;;;;;;;;14.80;14.00;;;;;10.56;100.00;98344.31;6138834;28;96588;-63
2023/11/19 11:33:50;;;;;;;;;16.50;15.50;;;;;10.12;100.00;98340.25;6145535;28;96939;-65
2023/11/19 11:37:19;;;;;;;;;14.00;14.00;;;;;10.27;100.00;98332.59;6120712;28;96718;-64
2023/11/19 11:40:23;;;;;;;;;16.00;15.00;;;;;10.17;100.00;98322.38;6135398;28;96837;-63
2023/11/19 11:43:48;;;;;;;;;15.00;15.00;;;;;9.80;100.00;98323.59;6122766;28;96837;-66
2023/11/19 11:46:57;;;;;;;;;16.20;14.80;;;;;9.54;100.00;98305.94;6146360;28;96385;-64
2023/11/19 11:50:07;;;;;;;;;17.00;15.00;;;;;9.27;100.00;98302.81;6144452;28;96954;-63
2023/11/19 11:53:17;;;;;;;;;15.80;14.40;;;;;9.29;100.00;98306.09;6124434;28;98896;-65
2023/11/19 11:56:20;;;;;;;;;10.00;10.00;;;;;9.49;100.00;98305.81;6101316;28;98439;-64
2023/11/19 11:59:25;;;;;;;;;13.00;11.00;;;;;9.68;100.00;98309.25;6114506;28;99552;-64
2023/11/19 12:02:29;;;;;;;;;12.00;11.00;;;;;9.74;100.00;98305.66;6145397;28;98832;-64
2023/11/19 12:05:34;;;;;;;;;13.00;11.50;;;;;9.76;100.00;98287.41;6170123;28;96901;-65
2023/11/19 12:08:37;;;;;;;;;14.00;13.50;;;;;9.70;100.00;98297.22;6163424;28;96269;-64
2023/11/19 12:11:48;;;;;;;;;13.25;13.00;;;;;9.77;100.00;98289.06;6166380;28;96589;-64
2023/11/19 12:15:05;;;;;;;;;15.80;14.20;;;;;9.74;100.00;98279.56;6163033;28;97123;-63
2023/11/19 12:18:09;;;;;;;;;11.00;11.00;;;;;9.68;100.00;98275.09;6158068;28;97317;-65
2023/11/19 12:21:12;;;;;;;;;12.00;11.00;;;;;9.67;100.00;98265.41;6162439;28;98309;-65
2023/11/19 12:24:16;;;;;;;;;8.50;8.00;;;;;9.71;100.00;98265.75;6163319;28;96311;-64
2023/11/19 12:27:21;;;;;;;;;13.00;12.75;;;;;9.56;100.00;98258.13;6168920;28;96326;-64
2023/11/19 12:30:28;;;;;;;;;12.00;11.00;;;;;9.50;100.00;98265.22;6158441;28;96969;-64
2023/11/19 12:33:32;;;;;;;;;10.00;9.00;;;;;9.44;100.00;98250.00;6163831;28;96637;-64
2023/11/19 12:36:35;;;;;;;;;11.40;11.00;;;;;9.33;100.00;98242.75;6160586;28;96542;-65
2023/11/19 12:39:40;;;;;;;;;11.20;10.00;;;;;9.35;100.00;98234.41;6181259;28;96644;-64
2023/11/19 12:42:43;;;;;;;;;10.00;9.00;;;;;9.27;100.00;98235.56;6165825;28;98518;-65
2023/11/19 12:45:48;;;;;;;;;10.00;10.00;;;;;9.14;100.00;98222.28;6144113;28;97110;-64
2023/11/19 12:48:52;;;;;;;;;11.00;10.50;;;;;9.01;100.00;98228.69;6150883;28;98421;-65
2023/11/19 12:51:55;;;;;;;;;11.00;10.20;;;;;8.96;100.00;98225.03;6159622;28;96739;-64
2023/11/19 12:54:58;;;;;;;;;9.67;9.67;;;;;8.88;100.00;98226.19;6163664;28;96326;-64
2023/11/19 12:58:01;;;;;;;;;11.25;11.25;;;;;8.88;100.00;98218.13;6153400;28;98597;-64
2023/11/19 13:01:09;;;;;;;;;9.00;9.00;;;;;8.78;100.00;98208.94;6163887;28;97123;-65
2023/11/19 13:04:19;;;;;;;;;11.60;10.60;;;;;8.60;100.00;98199.84;6167453;28;97436;-66
2023/11/19 13:07:22;;;;;;;;;14.00;13.00;;;;;8.52;100.00;98200.16;6160636;28;96577;-64
2023/11/19 13:10:25;;;;;;;;;14.00;13.50;;;;;8.49;100.00;98194.44;6165405;28;96635;-64
2023/11/19 13:13:29;;;;;;;;;13.60;12.00;;;;;8.24;100.00;98184.56;6169134;28;97262;-67
2023/11/19 13:16:33;;;;;;;;;13.20;12.40;;;;;8.49;100.00;98181.00;6167609;28;96690;-66
2023/11/19 13:19:37;;;;;;;;;13.00;13.00;;;;;8.43;100.00;98169.28;6152002;28;96951;-63
2023/11/19 13:22:40;;;;;;;;;14.75;13.75;;;;;8.43;100.00;98163.91;6153380;28;96709;-64
2023/11/19 13:25:43;;;;;;;;;15.60;14.20;;;;;8.42;100.00;98170.34;6177775;28;97009;-64
2023/11/19 13:28:46;;;;;;;;;16.00;14.40;;;;;8.19;100.00;98175.53;6166984;28;96374;-65
2023/11/19 13:31:51;;;;;;;;;14.00;13.60;;;;;8.34;100.00;98165.28;6155738;28;97366;-64
2023/11/19 13:34:54;;;;;;;;;9.75;8.75;;;;;8.25;100.00;98158.53;6151353;28;96330;-65
2023/11/19 13:37:57;;;;;;;;;13.40;12.40;;;;;8.36;100.00;98152.44;6160769;28;96969;-69
2023/11/19 13:41:01;;;;;;;;;13.00;12.00;;;;;8.46;100.00;98151.88;6165146;28;98649;-65
2023/11/19 13:44:04;;;;;;;;;12.00;12.00;;;;;8.19;100.00;98156.75;6158861;28;98715;-63
2023/11/19 13:47:10;;;;;;;;;13.80;12.60;;;;;8.30;100.00;98149.84;6155161;28;96348;-71
2023/11/19 13:50:15;;;;;;;;;15.60;14.60;;;;;8.36;100.00;98154.28;6139775;28;96398;-72
2023/11/19 13:53:18;;;;;;;;;13.25;13.00;;;;;8.43;100.00;98150.50;6152078;28;97487;-71
2023/11/19 13:56:21;;;;;;;;;16.00;15.00;;;;;8.47;100.00;98154.38;6155725;28;97158;-71
2023/11/19 13:59:24;;;;;;;;;16.00;15.00;;;;;8.55;100.00;98151.34;6169034;28;98844;-71
2023/11/19 14:02:29;;;;;;;;;17.00;17.00;;;;;8.66;100.00;98149.78;6160235;28;96662;-72
2023/11/19 14:05:32;;;;;;;;;15.25;15.00;;;;;8.68;100.00;98145.81;6159883;28;96782;-70
2023/11/19 14:08:38;;;;;;;;;15.00;13.00;;;;;8.50;100.00;98142.34;6151092;28;96669;-71